Eads, CO (81036)

9:59 AM MDT on September 02, 2015 (GMT -0600)
Kit Carson | | Change Station
CLOSE
Current Station
Personal Weather Station
Location: Kit Carson, CO
Elevation: 4301 ft
Nearby Weather Stations

Elev 4301 ft 38.77 °N, 102.79 °W | Updated 16 seconds ago

Clear
Clear
82.0 °F
Feels Like 81 °F
N
12.6
Wind Variable Wind from WNW
Gusts 13.0 mph

Today
High -- | Low -- °F
--% Chance of Precip.
Yesterday
High -- | Low -- °F
Precip. -- in
6:20 AM 7:19 PM
Waning Gibbous, 79% visible
Pressure 29.85 in
Visibility 8.0 miles
Clouds Clear
Heat Index 81 °F
Dew Point 48 °F
Humidity 31%
Rainfall 0.01 in
Snow Depth Not available.
UV 5 out of 12
Pollen 10.60 out of 12
Air Quality Not available.
Flu Activity Not available.
METAR KLAA 021553Z AUTO 28011KT 8SM CLR 28/12 A3000 RMK AO2 SLP108 T02780117 TSNO
Pressure 29.85 in
Visibility 8.0 miles
Clouds Clear
Heat Index 81 °F
Dew Point 48 °F
Humidity 31%
Rainfall 0.01 in
Snow Depth Not available.
UV 5 out of 12
Pollen 10.60 out of 12
Air Quality Not available.
Flu Activity Not available.
METAR KLAA 021553Z AUTO 28011KT 8SM CLR 28/12 A3000 RMK AO2 SLP108 T02780117 TSNO

10-Day Weather Forecast

×

Almanac

Astronomy

Sep. 02, 2015 Rise Set
Actual Time
Civil Twilight
Nautical Twilight
Astronomical Twilight
Moon
Length of Visible Light
Length of Day
Tomorrow will be .
, % of the Moon is Illuminated

Today's Extremes

State Highs State Lows

Community

WunderPhotos

Upload Photos

1,851,774 photos uploaded!

WunderBlogs® & News

Nearby

Air Quality

  Air Quality AQ Index Pollutant
Not available.

Snow Depth

Station Depth Elevation

Earthquake Activity

City Distance Mag. Time & Date
Minimum magnitude displayed is 2.5.

Coastal Water Temperatures

Place Temperature

Stations

Nearby Weather Stations

Station Location Temp. Windchill Dew Point Humidity Wind Precip. Elev Updated Type